Time;durP1;ratioP1;P1;durP2;ratioP2;P2;SDS_P1;SDS_P2;PMS_P1;PMS_P2;Temp;Humidity;BMP_temperature;BMP_pressure;BME280_temperature;BME280_humidity;BME280_pressure;Samples;Min_cycle;Max_cycle;Signal;HPM_P1;HPM_P2
2023/01/16 00:01:22;;;;;;;2.20;0.50;;;;;;;0.19;100.00;95116.63;4851297;29;20458;-90
2023/01/16 00:03:48;;;;;;;3.20;0.60;;;;;;;0.18;100.00;95111.59;4850679;29;20454;-90
2023/01/16 00:06:14;;;;;;;4.77;0.90;;;;;;;0.15;100.00;95102.31;4850705;29;20510;-90
2023/01/16 00:08:41;;;;;;;2.87;0.57;;;;;;;0.13;100.00;95111.94;4850530;29;20462;-90
2023/01/16 00:11:07;;;;;;;1.77;0.60;;;;;;;0.15;100.00;95110.06;4850234;29;20470;-90
2023/01/16 00:17:22;;;;;;;2.67;0.70;;;;;;;0.24;100.00;95100.75;4867822;29;20425;-90
2023/01/16 00:19:47;;;;;;;2.40;0.60;;;;;;;0.25;100.00;95088.63;4849955;29;20454;-90
2023/01/16 00:22:13;;;;;;;3.27;0.50;;;;;;;0.31;100.00;95090.72;4850173;29;20033;-90
2023/01/16 00:24:39;;;;;;;2.07;0.70;;;;;;;0.25;100.00;95084.28;4850647;29;20033;-90
2023/01/16 00:27:05;;;;;;;2.73;0.53;;;;;;;0.19;100.00;95083.00;4850833;29;20046;-90
2023/01/16 00:33:18;;;;;;;1.90;0.83;;;;;;;0.14;100.00;95069.66;4885104;29;20125;-90
2023/01/16 00:35:43;;;;;;;5.00;0.97;;;;;;;0.13;100.00;95059.41;4883834;29;20571;-90
2023/01/16 00:38:09;;;;;;;4.73;1.10;;;;;;;-0.01;100.00;95053.59;4871709;29;20045;-90
2023/01/16 00:40:35;;;;;;;2.90;0.67;;;;;;;0.14;100.00;95054.13;4868598;29;20033;-90
2023/01/16 00:43:00;;;;;;;3.70;1.07;;;;;;;0.41;100.00;95055.41;4874947;29;20016;-91
2023/01/16 00:45:26;;;;;;;4.47;0.90;;;;;;;0.41;100.00;95040.72;4874694;29;20045;-91
2023/01/16 00:47:52;;;;;;;6.67;0.90;;;;;;;0.50;100.00;95039.13;4890192;29;20035;-91
2023/01/16 00:50:18;;;;;;;2.03;0.50;;;;;;;0.67;100.00;95032.53;4882198;29;20065;-91
2023/01/16 00:52:43;;;;;;;2.20;0.67;;;;;;;0.67;100.00;95035.13;4867626;29;20048;-91
2023/01/16 00:55:09;;;;;;;3.13;0.67;;;;;;;0.86;100.00;95029.22;4869106;29;20044;-91
2023/01/16 00:57:35;;;;;;;4.43;0.70;;;;;;;0.96;100.00;95019.72;4868961;29;20544;-91
2023/01/16 01:00:00;;;;;;;4.20;0.87;;;;;;;1.14;100.00;95010.41;4868316;29;20048;-91
2023/01/16 01:02:26;;;;;;;5.57;1.10;;;;;;;1.29;100.00;95010.84;4867781;29;20040;-90
2023/01/16 01:04:52;;;;;;;3.23;0.80;;;;;;;1.36;100.00;95000.78;4867467;29;20044;-91
2023/01/16 01:07:17;;;;;;;5.90;0.80;;;;;;;1.44;100.00;94993.16;4866743;29;20456;-91
2023/01/16 01:13:30;;;;;;;2.27;0.53;;;;;;;1.51;100.00;94985.66;4886552;29;20084;-90
2023/01/16 01:15:56;;;;;;;4.70;0.73;;;;;;;1.52;100.00;94982.94;4886846;29;20074;-91
2023/01/16 01:18:22;;;;;;;4.30;1.57;;;;;;;1.39;100.00;94980.59;4868188;29;20037;-91
2023/01/16 01:20:47;;;;;;;1.97;0.73;;;;;;;1.41;100.00;94972.72;4867328;29;20571;-91
2023/01/16 01:27:00;;;;;;;3.83;0.50;;;;;;;1.31;100.00;94969.28;4846430;29;20044;-91
2023/01/16 01:29:26;;;;;;;3.07;1.10;;;;;;;1.31;100.00;94969.28;4860551;29;20132;-91
2023/01/16 01:31:52;;;;;;;3.40;0.90;;;;;;;1.32;100.00;94963.16;4829824;29;20038;-91
2023/01/16 01:34:17;;;;;;;1.60;0.50;;;;;;;1.24;100.00;94968.16;4833761;29;20034;-91
2023/01/16 01:36:43;;;;;;;3.43;0.57;;;;;;;1.24;100.00;94961.25;4867346;29;20042;-90
2023/01/16 01:39:09;;;;;;;1.33;0.40;;;;;;;1.13;100.00;94959.56;4852129;29;20030;-91
2023/01/16 01:41:34;;;;;;;4.37;0.87;;;;;;;1.01;100.00;94960.63;4852013;29;20030;-91
2023/01/16 01:44:00;;;;;;;9.17;2.53;;;;;;;0.97;100.00;94964.41;4872408;29;20079;-91
2023/01/16 01:46:34;;;;;;;7.23;1.10;;;;;;;0.86;100.00;94967.13;4832019;29;20040;-91
2023/01/16 01:49:14;;;;;;;2.13;0.63;;;;;;;0.75;100.00;94964.63;4830780;29;20058;-91
2023/01/16 01:51:42;;;;;;;4.13;0.77;;;;;;;0.73;100.00;94958.75;4845003;29;20042;-91
2023/01/16 01:54:13;;;;;;;2.77;0.63;;;;;;;0.60;100.00;94958.97;4830263;29;20034;-91
2023/01/16 02:00:27;;;;;;;2.77;0.53;;;;;;;0.53;100.00;94937.97;4846549;29;20086;-91
2023/01/16 02:03:10;;;;;;;3.77;0.67;;;;;;;0.43;100.00;94930.19;4845797;29;20474;-91
2023/01/16 02:09:24;;;;;;;5.67;0.90;;;;;;;0.46;100.00;94921.34;4845620;29;20536;-91
2023/01/16 02:11:50;;;;;;;2.87;0.60;;;;;;;0.50;100.00;94911.56;4829608;29;20450;-91
2023/01/16 02:24:31;;;;;;;2.53;0.47;;;;;;;0.26;100.00;94875.66;4863290;29;20481;-91
2023/01/16 02:27:30;;;;;;;2.13;0.60;;;;;;;0.22;100.00;94864.78;4855552;29;21060;-90
2023/01/16 02:30:10;;;;;;;4.00;0.80;;;;;;;0.21;100.00;94869.13;4851721;29;20462;-91
2023/01/16 02:33:14;;;;;;;2.33;0.60;;;;;;;0.16;100.00;94855.75;4863062;29;20511;-91
2023/01/16 02:39:38;;;;;;;3.40;0.60;;;;;;;0.06;100.00;94831.63;4864311;29;20048;-91
2023/01/16 02:42:13;;;;;;;4.30;0.93;;;;;;;0.07;100.00;94825.53;4847458;29;20586;-91
2023/01/16 02:44:53;;;;;;;4.10;0.67;;;;;;;0.15;100.00;94828.28;4846888;29;20473;-91
2023/01/16 02:47:24;;;;;;;5.13;0.87;;;;;;;0.17;100.00;94816.06;4847251;29;20497;-91
2023/01/16 02:49:58;;;;;;;6.90;1.83;;;;;;;0.26;100.00;94803.28;4844714;29;20463;-91
2023/01/16 02:56:15;;;;;;;2.07;0.50;;;;;;;0.24;100.00;94764.63;4845388;29;20458;-91
2023/01/16 03:02:27;;;;;;;6.40;0.50;;;;;;;0.29;100.00;94766.81;4844586;29;20522;-91
2023/01/16 03:04:53;;;;;;;6.50;0.90;;;;;;;0.21;100.00;94770.06;4843167;29;20471;-91
2023/01/16 03:07:25;;;;;;;3.07;0.57;;;;;;;0.21;100.00;94754.56;4843396;29;20537;-91
2023/01/16 03:13:49;;;;;;;7.30;1.90;;;;;;;0.12;100.00;94748.41;4845754;29;20506;-91
2023/01/16 03:16:24;;;;;;;6.87;2.37;;;;;;;0.05;100.00;94742.13;4843437;29;20481;-91
2023/01/16 03:22:43;;;;;;;6.10;2.03;;;;;;;-0.06;100.00;94724.16;4849740;29;20553;-91
2023/01/16 03:25:27;;;;;;;5.57;2.00;;;;;;;-0.12;100.00;94727.25;4830153;29;20481;-91
2023/01/16 03:31:39;;;;;;;4.37;0.77;;;;;;;-0.22;100.00;94710.91;4851599;29;19922;-91
2023/01/16 03:34:17;;;;;;;2.30;0.70;;;;;;;-0.30;100.00;94702.06;4850975;29;20471;-91
2023/01/16 03:37:09;;;;;;;2.50;0.60;;;;;;;-0.30;100.00;94693.50;4848988;29;20049;-91
2023/01/16 03:39:39;;;;;;;2.30;0.70;;;;;;;-0.37;100.00;94685.44;4845139;29;20478;-91
2023/01/16 03:42:10;;;;;;;1.57;0.40;;;;;;;-0.43;100.00;94683.38;4833075;29;20487;-91
2023/01/16 03:44:47;;;;;;;2.67;0.63;;;;;;;-0.59;100.00;94670.13;4863918;29;21192;-91
2023/01/16 03:47:20;;;;;;;2.77;0.70;;;;;;;-0.62;100.00;94667.81;4886454;29;20465;-90
2023/01/16 03:49:50;;;;;;;3.15;0.55;;;;;;;-0.73;100.00;94664.38;4859938;29;20469;-91
2023/01/16 03:52:21;;;;;;;3.83;0.50;;;;;;;-0.76;100.00;94654.28;4850051;29;20041;-90
2023/01/16 03:55:08;;;;;;;1.10;0.43;;;;;;;-0.77;100.00;94644.09;4850366;29;20486;-90
2023/01/16 03:57:50;;;;;;;4.23;1.10;;;;;;;-0.62;100.00;94636.81;4849905;29;20478;-91
2023/01/16 04:00:18;;;;;;;3.50;0.60;;;;;;;-0.60;100.00;94629.78;4850520;29;20997;-91
2023/01/16 04:03:00;;;;;;;5.93;1.27;;;;;;;-0.63;100.00;94630.84;4847417;29;20467;-91
2023/01/16 04:05:51;;;;;;;2.13;0.60;;;;;;;-0.59;100.00;94626.25;4832787;29;20463;-91
2023/01/16 04:08:25;;;;;;;5.57;0.70;;;;;;;-0.55;100.00;94619.88;4833834;29;20451;-91
2023/01/16 04:10:52;;;;;;;2.37;0.57;;;;;;;-0.46;100.00;94618.28;4841084;29;20485;-91
2023/01/16 04:13:25;;;;;;;3.40;0.40;;;;;;;-0.42;100.00;94617.88;4833793;29;20466;-91
2023/01/16 04:15:55;;;;;;;4.50;0.77;;;;;;;-0.40;100.00;94608.22;4843813;29;20510;-91
2023/01/16 04:18:25;;;;;;;8.73;5.00;;;;;;;-0.36;100.00;94601.03;4839691;29;20042;-91
2023/01/16 04:20:51;;;;;;;17.93;5.53;;;;;;;-0.50;100.00;94589.31;4831501;29;20494;-91
2023/01/16 04:23:17;;;;;;;34.47;10.83;;;;;;;-0.62;100.00;94593.75;4830906;29;20494;-91
2023/01/16 04:29:30;;;;;;;12.20;4.60;;;;;;;-0.74;100.00;94569.81;4847667;29;20045;-91
2023/01/16 04:31:55;;;;;;;7.80;3.20;;;;;;;-0.78;100.00;94568.44;4831032;29;20569;-91
2023/01/16 04:34:21;;;;;;;5.73;1.47;;;;;;;-0.76;100.00;94563.97;4830400;29;20038;-91
2023/01/16 04:40:31;;;;;;;2.43;0.70;;;;;;;-0.57;100.00;94544.28;4879438;29;20045;-91
2023/01/16 04:46:05;;;;;;;4.97;1.60;;;;;;;-0.60;100.00;94544.59;4886697;29;20481;-91
2023/01/16 04:48:31;;;;;;;6.87;3.07;;;;;;;-0.53;100.00;94535.34;4868750;29;20489;-91
2023/01/16 04:51:43;;;;;;;7.40;2.60;;;;;;;-0.53;100.00;94535.34;4899757;29;20033;-91
2023/01/16 04:54:14;;;;;;;6.77;2.67;;;;;;;-0.58;100.00;94524.59;4883028;29;20045;-91
2023/01/16 04:56:41;;;;;;;5.13;2.37;;;;;;;-0.58;100.00;94507.34;4885745;29;20516;-91
2023/01/16 05:06:42;;;;;;;6.87;1.50;;;;;;;-0.45;100.00;94488.19;4860383;29;20554;-92
2023/01/16 05:09:32;;;;;;;5.60;1.70;;;;;;;-0.35;100.00;94481.25;4848975;29;20458;-91
2023/01/16 05:11:58;;;;;;;9.00;2.43;;;;;;;-0.32;100.00;94474.06;4848314;29;20396;-91
2023/01/16 05:14:24;;;;;;;7.47;2.37;;;;;;;-0.33;100.00;94477.59;4851979;29;20505;-91
2023/01/16 05:16:49;;;;;;;5.77;2.33;;;;;;;-0.33;100.00;94476.78;4867324;29;20040;-91
2023/01/16 05:19:22;;;;;;;6.93;1.63;;;;;;;-0.35;100.00;94461.41;4868796;29;20052;-91
2023/01/16 05:21:48;;;;;;;6.72;1.92;;;;;;;-0.46;100.00;94471.88;4867271;29;20076;-91
2023/01/16 05:24:49;;;;;;;4.43;1.33;;;;;;;-0.61;100.00;94461.13;4858904;29;20037;-91
2023/01/16 05:27:15;;;;;;;3.57;1.20;;;;;;;-0.73;100.00;94455.28;4866535;29;20105;-90
2023/01/16 05:29:40;;;;;;;8.37;2.00;;;;;;;-0.73;100.00;94450.13;4854005;29;20493;-92
2023/01/16 05:32:06;;;;;;;7.10;1.70;;;;;;;-0.68;100.00;94441.16;4849808;29;20033;-86
2023/01/16 05:34:32;;;;;;;12.20;2.00;;;;;;;-0.74;100.00;94440.75;4875328;29;20033;-86
2023/01/16 05:36:57;;;;;;;5.70;1.53;;;;;;;-0.72;100.00;94431.09;4856171;29;20064;-85
2023/01/16 05:39:24;;;;;;;4.27;1.40;;;;;;;-0.80;100.00;94428.38;4843997;29;20112;-86
2023/01/16 05:41:49;;;;;;;3.20;1.30;;;;;;;-0.85;100.00;94419.41;4841908;29;20037;-87
2023/01/16 05:44:21;;;;;;;6.23;1.43;;;;;;;-0.84;100.00;94416.72;4851576;29;20976;-87
2023/01/16 05:46:47;;;;;;;8.40;3.13;;;;;;;-0.86;100.00;94405.69;4838731;29;20069;-87
2023/01/16 05:49:13;;;;;;;4.77;1.60;;;;;;;-0.95;100.00;94409.06;4863265;29;20517;-87
2023/01/16 05:51:38;;;;;;;4.80;1.77;;;;;;;-0.93;100.00;94391.72;4843308;29;20134;-87
2023/01/16 05:54:12;;;;;;;4.87;1.47;;;;;;;-0.95;100.00;94393.59;4847901;29;20030;-88
2023/01/16 05:56:38;;;;;;;5.25;1.55;;;;;;;-0.99;100.00;94385.31;4850594;29;20117;-87
2023/01/16 08:02:52;;;;;;;7.30;1.60;;;;;;;0.15;100.00;94088.22;4867575;29;20576;-85
2023/01/16 08:05:18;;;;;;;4.73;2.40;;;;;;;0.28;100.00;94083.50;4844389;29;20465;-84
2023/01/16 08:07:44;;;;;;;5.90;1.33;;;;;;;0.12;100.00;94079.00;4843549;29;20466;-86
2023/01/16 08:10:10;;;;;;;3.43;1.20;;;;;;;0.08;100.00;94064.75;4844172;29;20026;-83
2023/01/16 08:12:40;;;;;;;3.73;1.50;;;;;;;0.12;100.00;94049.75;4855164;29;20038;-83
2023/01/16 08:15:06;;;;;;;2.90;1.13;;;;;;;0.13;100.00;94039.25;4843625;29;20536;-83
2023/01/16 08:17:32;;;;;;;3.60;1.37;;;;;;;0.38;100.00;94047.22;4850718;29;20451;-84
2023/01/16 08:20:01;;;;;;;2.87;1.10;;;;;;;0.52;100.00;94043.25;4859235;29;20843;-84
2023/01/16 08:22:44;;;;;;;4.80;1.17;;;;;;;0.42;100.00;94033.00;4855420;29;20245;-84
2023/01/16 08:25:17;;;;;;;6.13;1.63;;;;;;;0.46;100.00;94029.16;4842972;29;20466;-84
2023/01/16 08:27:46;;;;;;;3.97;1.43;;;;;;;0.54;100.00;94026.63;4862039;29;20460;-83
2023/01/16 08:30:12;;;;;;;4.13;1.27;;;;;;;0.72;100.00;94013.63;4845000;29;20458;-87
2023/01/16 08:32:39;;;;;;;6.97;1.90;;;;;;;1.24;100.00;94013.53;4850821;29;20470;-84
2023/01/16 08:35:05;;;;;;;5.60;1.93;;;;;;;1.32;100.00;93999.81;4840573;29;20606;-84
2023/01/16 08:37:31;;;;;;;2.50;1.07;;;;;;;1.84;100.00;93994.38;4860326;29;20486;-85
2023/01/16 08:39:57;;;;;;;3.30;1.10;;;;;;;1.47;100.00;93987.03;4851430;29;20970;-84
2023/01/16 08:51:22;;;;;;;5.07;1.27;;;;;;;1.93;100.00;93959.72;4851517;29;20120;-83
2023/01/16 08:53:49;;;;;;;4.10;1.47;;;;;;;2.18;100.00;93959.69;4843166;29;20038;-84
2023/01/16 08:56:15;;;;;;;2.83;0.77;;;;;;;2.63;100.00;93953.13;4858401;29;20483;-85
2023/01/16 08:58:41;;;;;;;2.33;0.90;;;;;;;2.66;100.00;93942.44;4844489;29;20029;-82
2023/01/16 09:01:07;;;;;;;4.07;1.20;;;;;;;2.55;100.00;93947.00;4845744;29;20038;-82
2023/01/16 09:03:34;;;;;;;21.30;8.80;;;;;;;2.77;100.00;93931.66;4872051;29;20041;-83
2023/01/16 09:06:00;;;;;;;7.47;2.40;;;;;;;2.84;100.00;93936.00;4846268;29;20121;-82
2023/01/16 09:08:28;;;;;;;3.53;1.23;;;;;;;3.93;100.00;93928.22;4852950;29;20044;-83
2023/01/16 09:13:48;;;;;;;7.30;2.30;;;;;;;4.57;100.00;93922.59;4861443;29;20564;-81
2023/01/16 09:16:20;;;;;;;7.57;3.70;;;;;;;5.03;100.00;93915.38;4855834;29;20042;-81
2023/01/16 09:18:46;;;;;;;14.53;7.57;;;;;;;5.33;100.00;93908.31;4842037;29;20409;-82
2023/01/16 09:21:12;;;;;;;5.93;2.50;;;;;;;5.01;100.00;93906.13;4837132;29;20038;-81
2023/01/16 09:23:37;;;;;;;4.00;1.60;;;;;;;4.82;100.00;93905.69;4855780;29;20037;-82
2023/01/16 09:26:06;;;;;;;7.60;1.60;;;;;;;4.34;100.00;93910.44;4846744;29;20065;-84
2023/01/16 09:28:36;;;;;;;13.53;2.23;;;;;;;4.14;100.00;93906.75;4852972;29;20037;-87
2023/01/16 09:31:03;;;;;;;1.77;0.83;;;;;;;3.19;100.00;93899.34;4847220;29;20077;-81
2023/01/16 09:33:29;;;;;;;3.30;1.00;;;;;;;3.00;100.00;93911.78;4840249;29;20072;-82
2023/01/16 09:35:54;;;;;;;2.27;1.00;;;;;;;3.01;100.00;93910.78;4841076;29;20034;-82
2023/01/16 09:38:21;;;;;;;3.10;0.87;;;;;;;3.24;100.00;93894.44;4851171;29;20038;-82
2023/01/16 09:40:49;;;;;;;4.43;1.20;;;;;;;2.77;100.00;93892.75;4837846;29;20047;-81
2023/01/16 09:43:38;;;;;;;5.23;0.80;;;;;;;2.47;100.00;93869.19;4853329;29;20060;-81
2023/01/16 09:46:18;;;;;;;3.73;1.10;;;;;;;2.59;100.00;93862.66;4847767;29;20048;-81
2023/01/16 09:49:03;;;;;;;1.00;0.50;;;;;;;2.78;100.00;93858.00;4826076;29;20030;-81
2023/01/16 09:51:35;;;;;;;2.40;0.60;;;;;;;2.54;100.00;93862.34;4836287;29;20042;-81
2023/01/16 09:59:55;;;;;;;6.00;0.70;;;;;;;2.21;100.00;93850.47;4851445;29;20038;-81
2023/01/16 10:02:25;;;;;;;3.60;0.80;;;;;;;2.17;100.00;93855.16;4850158;29;20034;-81
2023/01/16 10:04:53;;;;;;;3.97;1.00;;;;;;;2.29;100.00;93855.63;4828279;29;20069;-81
2023/01/16 10:07:45;;;;;;;2.23;0.70;;;;;;;2.36;100.00;93841.81;4829727;29;20034;-81
2023/01/16 10:10:36;;;;;;;2.97;0.67;;;;;;;2.36;100.00;93843.63;4835033;29;20123;-81
2023/01/16 10:13:26;;;;;;;2.50;0.50;;;;;;;2.41;100.00;93823.16;4832868;29;20045;-81
2023/01/16 10:16:20;;;;;;;4.40;1.23;;;;;;;2.42;100.00;93837.75;4847723;29;20032;-82
2023/01/16 10:19:10;;;;;;;3.08;0.65;;;;;;;2.65;100.00;93847.38;4839617;29;20048;-81
2023/01/16 10:22:00;;;;;;;1.63;0.40;;;;;;;2.71;100.00;93867.47;4837381;29;20157;-81
2023/01/16 10:24:49;;;;;;;3.70;1.30;;;;;;;2.76;100.00;93881.56;4832270;29;20033;-81
2023/01/16 10:27:37;;;;;;;3.33;1.23;;;;;;;2.67;100.00;93872.19;4851877;29;20033;-81
2023/01/16 10:30:16;;;;;;;1.63;0.80;;;;;;;2.62;100.00;93853.72;4850596;29;20065;-81
2023/01/16 10:32:50;;;;;;;3.20;0.60;;;;;;;2.71;100.00;93857.06;4850624;29;20038;-81
2023/01/16 10:35:23;;;;;;;1.15;0.45;;;;;;;2.80;100.00;93799.78;4832690;29;20608;-81
2023/01/16 10:37:50;;;;;;;3.35;0.80;;;;;;;2.76;100.00;93787.31;4830145;29;20074;-81
2023/01/16 10:40:29;;;;;;;3.23;0.37;;;;;;;2.62;100.00;93775.88;4851021;29;20042;-81
2023/01/16 10:49:25;;;;;;;1.73;0.57;;;;;;;2.56;100.00;93766.19;4848042;29;20049;-79
2023/01/16 10:51:34;;;;;;;3.97;0.90;;;;;;;2.50;100.00;93757.28;4845022;29;20625;-79
2023/01/16 10:54:00;;;;;;;2.63;1.10;;;;;;;2.55;100.00;93759.41;4846718;29;20319;-80
2023/01/16 10:56:26;;;;;;;5.00;0.93;;;;;;;2.51;100.00;93751.13;4847642;29;20523;-79
2023/01/16 10:58:52;;;;;;;4.87;1.23;;;;;;;2.55;100.00;93744.63;4831699;29;20034;-80
2023/01/16 11:01:21;;;;;;;3.20;1.07;;;;;;;2.51;100.00;93743.34;4849581;29;20452;-80
2023/01/16 11:03:55;;;;;;;2.33;0.60;;;;;;;2.67;100.00;93741.63;4849639;29;20034;-79
2023/01/16 11:06:30;;;;;;;1.53;0.50;;;;;;;2.64;100.00;93732.41;4834967;29;20404;-83
2023/01/16 11:09:16;;;;;;;2.17;0.70;;;;;;;2.60;100.00;93724.16;4866865;29;20037;-80
2023/01/16 17:24:40;;;;;;;0.97;0.40;;;;;;;4.23;100.00;93190.34;5145357;27;20721;-84
2023/01/16 17:27:10;;;;;;;0.93;0.43;;;;;;;4.29;100.00;93162.72;5142559;27;20023;-84
2023/01/16 17:29:43;;;;;;;1.20;0.50;;;;;;;4.30;100.00;93177.38;5137804;27;20023;-85
2023/01/16 17:32:32;;;;;;;1.02;0.50;;;;;;;4.20;100.00;93162.13;5130732;27;20033;-85
2023/01/16 17:35:16;;;;;;;2.63;1.43;;;;;;;4.21;100.00;93176.72;5153413;27;20031;-85
2023/01/16 17:37:42;;;;;;;3.67;1.20;;;;;;;4.15;100.00;93167.09;5134134;27;20047;-85
2023/01/16 17:40:21;;;;;;;6.33;0.93;;;;;;;4.27;100.00;93168.16;5121129;27;20433;-85
2023/01/16 17:45:58;;;;;;;4.03;1.60;;;;;;;4.29;100.00;93173.94;5135525;27;20031;-85
2023/01/16 17:58:12;;;;;;;1.93;0.60;;;;;;;3.96;100.00;93186.84;5086266;28;20531;-86
2023/01/16 18:00:39;;;;;;;1.53;0.90;;;;;;;3.92;100.00;93193.41;5054609;28;20037;-86
2023/01/16 18:03:10;;;;;;;1.90;0.77;;;;;;;3.97;100.00;93191.03;5049801;28;20029;-83
2023/01/16 18:05:40;;;;;;;1.07;0.53;;;;;;;3.87;100.00;93188.00;5040712;28;20116;-85
2023/01/16 18:08:13;;;;;;;2.97;1.10;;;;;;;3.82;100.00;93180.75;5050541;28;20030;-86
2023/01/16 18:10:40;;;;;;;1.00;0.60;;;;;;;3.81;100.00;93170.56;5066916;28;20073;-84
2023/01/16 18:19:18;;;;;;;1.47;0.67;;;;;;;3.51;100.00;93200.19;4985166;28;20462;-84
2023/01/16 18:22:02;;;;;;;1.97;0.80;;;;;;;3.45;100.00;93208.75;5061715;28;20461;-84
2023/01/16 18:24:29;;;;;;;2.50;0.90;;;;;;;3.44;100.00;93201.94;5050759;28;20068;-85
2023/01/16 18:26:56;;;;;;;2.40;1.23;;;;;;;3.59;100.00;93208.81;5061166;28;20089;-85
2023/01/16 18:29:35;;;;;;;2.63;1.30;;;;;;;3.46;100.00;93214.75;5083522;28;20024;-87
2023/01/16 18:34:59;;;;;;;1.97;0.70;;;;;;;3.52;100.00;93225.19;5091203;28;20029;-84
2023/01/16 18:37:29;;;;;;;1.90;0.90;;;;;;;3.41;100.00;93215.31;5082659;28;20013;-87
2023/01/16 19:03:20;;;;;;;1.33;0.40;;;;;;;3.67;100.00;93203.50;5047468;28;20344;-91
2023/01/16 19:05:48;;;;;;;0.83;0.30;;;;;;;3.70;100.00;93210.91;5043749;28;20033;-93
2023/01/16 19:08:21;;;;;;;2.27;0.40;;;;;;;3.71;100.00;93220.31;5027565;28;20041;-94
2023/01/16 19:11:05;;;;;;;4.13;0.77;;;;;;;3.65;100.00;93210.66;5027068;28;20029;-94
2023/01/16 19:13:37;;;;;;;0.77;0.40;;;;;;;3.67;100.00;93198.28;5060643;28;20056;-92
2023/01/16 19:18:52;;;;;;;0.57;0.40;;;;;;;3.76;100.00;93210.16;5047441;28;20037;-90
2023/01/16 19:21:18;;;;;;;1.90;0.60;;;;;;;3.74;100.00;93209.53;5037491;28;20796;-92
2023/01/16 19:23:44;;;;;;;1.10;0.30;;;;;;;3.70;100.00;93219.50;5047492;28;20044;-90
2023/01/16 19:26:10;;;;;;;0.67;0.33;;;;;;;3.71;100.00;93220.31;5031127;28;20029;-91
2023/01/16 19:28:37;;;;;;;1.07;0.30;;;;;;;3.79;100.00;93217.56;5038025;28;20512;-93
2023/01/16 19:31:03;;;;;;;0.80;0.23;;;;;;;3.76;100.00;93215.34;5038553;28;20040;-95
2023/01/16 19:33:49;;;;;;;1.57;0.47;;;;;;;3.78;100.00;93219.34;5028115;28;20499;-89
2023/01/16 19:36:15;;;;;;;1.07;0.47;;;;;;;3.63;100.00;93234.25;5036358;28;20490;-94
2023/01/16 19:38:42;;;;;;;1.03;0.30;;;;;;;3.70;100.00;93211.72;5050570;28;20048;-93
2023/01/16 19:46:45;;;;;;;4.30;1.10;;;;;;;3.92;100.00;93230.63;5016588;28;20120;-93
2023/01/16 19:49:13;;;;;;;0.52;0.40;;;;;;;3.71;100.00;93233.28;5046293;28;20040;-89
2023/01/16 19:51:40;;;;;;;1.10;0.30;;;;;;;3.60;100.00;93228.63;5041184;28;20033;-88
2023/01/16 19:54:06;;;;;;;3.70;0.90;;;;;;;3.54;100.00;93236.19;5018444;28;20037;-88
2023/01/16 19:56:35;;;;;;;1.20;0.50;;;;;;;3.56;100.00;93240.41;5030434;28;20029;-88
2023/01/16 19:59:20;;;;;;;2.33;0.47;;;;;;;3.54;100.00;93240.59;5053877;28;20029;-88
2023/01/16 20:01:58;;;;;;;1.53;0.50;;;;;;;3.48;100.00;93247.34;5037973;28;20064;-88
2023/01/16 20:04:48;;;;;;;3.23;0.63;;;;;;;3.47;100.00;93245.72;5043668;28;20128;-88
2023/01/16 20:07:29;;;;;;;1.57;0.40;;;;;;;3.39;100.00;93243.28;5049004;28;20094;-88
2023/01/16 20:09:58;;;;;;;1.33;0.37;;;;;;;3.38;100.00;93256.44;5055028;28;20482;-88
2023/01/16 20:12:49;;;;;;;1.87;0.70;;;;;;;3.45;100.00;93252.91;5037821;28;20039;-88
2023/01/16 20:15:17;;;;;;;0.73;0.47;;;;;;;3.62;100.00;93253.44;5034633;28;20051;-88
2023/01/16 20:18:14;;;;;;;2.53;0.60;;;;;;;3.50;100.00;93255.75;5039106;28;20052;-88
2023/01/16 20:20:40;;;;;;;1.90;0.80;;;;;;;3.45;100.00;93258.09;5037687;28;20490;-89
2023/01/16 20:23:07;;;;;;;3.50;0.87;;;;;;;3.48;100.00;93259.53;5041638;28;20037;-88
2023/01/16 20:25:36;;;;;;;2.43;0.70;;;;;;;3.54;100.00;93256.97;5027195;28;20120;-88
2023/01/16 20:28:02;;;;;;;1.50;0.50;;;;;;;3.47;100.00;93263.91;5017214;28;20036;-88
2023/01/16 20:30:44;;;;;;;1.67;0.63;;;;;;;3.46;100.00;93259.72;5026098;28;20029;-88
2023/01/16 20:33:28;;;;;;;1.37;0.60;;;;;;;3.42;100.00;93263.69;5053375;28;20077;-88
2023/01/16 20:36:24;;;;;;;1.95;0.65;;;;;;;3.45;100.00;93260.69;5036103;28;20068;-88
2023/01/16 20:38:54;;;;;;;3.07;1.00;;;;;;;3.36;100.00;93274.84;5032389;28;20040;-88
2023/01/16 20:47:22;;;;;;;3.83;0.83;;;;;;;3.30;100.00;93273.78;5046957;28;20127;-88
2023/01/16 20:49:49;;;;;;;5.23;1.20;;;;;;;3.21;100.00;93281.88;5052547;28;20068;-88
2023/01/16 20:52:18;;;;;;;1.07;0.50;;;;;;;3.23;100.00;93285.91;5052363;28;20379;-88
2023/01/16 20:55:11;;;;;;;1.40;0.40;;;;;;;3.19;100.00;93289.88;5062077;28;20037;-88
2023/01/16 20:57:57;;;;;;;2.47;0.67;;;;;;;3.15;100.00;93285.22;5036505;28;20053;-89
2023/01/16 21:00:26;;;;;;;1.23;0.50;;;;;;;3.15;100.00;93280.03;5016785;28;20029;-88
2023/01/16 21:03:04;;;;;;;1.57;0.40;;;;;;;3.09;100.00;93296.38;5020159;28;20025;-87
2023/01/16 21:05:47;;;;;;;1.97;0.47;;;;;;;3.10;100.00;93296.19;5034604;28;20037;-89
2023/01/16 21:08:13;;;;;;;27.98;14.88;;;;;;;3.25;100.00;93304.72;5039098;28;20431;-87
2023/01/16 21:10:39;;;;;;;3.63;1.50;;;;;;;3.27;100.00;93305.31;5035233;28;20033;-88
2023/01/16 21:24:22;;;;;;;2.67;0.50;;;;;;;3.22;100.00;93305.09;5039766;28;20049;-88
2023/01/16 21:26:51;;;;;;;6.37;1.20;;;;;;;3.29;100.00;93318.94;5036956;28;20033;-88
2023/01/16 21:29:16;;;;;;;4.37;0.87;;;;;;;3.26;100.00;93318.50;5025352;28;20030;-88
2023/01/16 21:31:42;;;;;;;4.40;1.30;;;;;;;3.20;100.00;93319.25;5024050;28;20052;-88
2023/01/16 21:34:08;;;;;;;3.80;0.70;;;;;;;3.23;100.00;93330.06;5049785;28;20033;-88
2023/01/16 21:36:34;;;;;;;4.77;2.10;;;;;;;3.26;100.00;93326.28;5023761;28;20034;-87
2023/01/16 21:38:59;;;;;;;2.90;0.67;;;;;;;3.24;100.00;93313.47;5053676;28;20109;-88
2023/01/16 21:41:25;;;;;;;2.50;0.70;;;;;;;3.23;100.00;93305.88;5034968;28;20474;-87
2023/01/16 21:46:42;;;;;;;1.73;0.53;;;;;;;3.13;100.00;93313.19;5050509;28;20037;-89
2023/01/16 21:49:17;;;;;;;2.95;0.50;;;;;;;3.15;100.00;93313.78;5043557;28;20035;-89
2023/01/16 21:51:42;;;;;;;5.40;2.07;;;;;;;3.16;100.00;93318.00;5048707;28;20049;-90
2023/01/16 21:54:10;;;;;;;5.03;1.90;;;;;;;3.25;100.00;93316.88;5041701;28;20048;-89
2023/01/16 21:56:35;;;;;;;3.13;0.87;;;;;;;3.28;100.00;93322.50;5042420;28;20091;-89
2023/01/16 21:59:01;;;;;;;4.57;0.90;;;;;;;3.15;100.00;93324.19;5040600;28;20490;-90
2023/01/16 22:01:27;;;;;;;4.40;0.80;;;;;;;3.19;100.00;93313.25;5039955;28;20501;-90
2023/01/16 22:03:53;;;;;;;1.63;0.57;;;;;;;3.07;100.00;93325.91;5034006;28;20394;-89
2023/01/16 22:06:19;;;;;;;2.73;0.60;;;;;;;3.04;100.00;93334.06;5031253;28;20025;-89
2023/01/16 22:08:45;;;;;;;4.40;0.70;;;;;;;3.16;100.00;93325.81;5044392;28;20106;-89
2023/01/16 22:19:38;;;;;;;1.37;0.60;;;;;;;2.96;100.00;93320.41;5050445;28;20406;-89
2023/01/16 22:22:04;;;;;;;;;;;;;;;3.01;100.00;93334.44;5029948;28;20036;-89
2023/01/16 22:24:32;;;;;;;2.77;1.23;;;;;;;3.20;100.00;93329.63;5065957;28;20365;-89
2023/01/16 22:27:24;;;;;;;7.50;2.40;;;;;;;3.02;100.00;93336.06;5027141;28;20035;-89
2023/01/16 22:29:51;;;;;;;4.30;0.63;;;;;;;2.92;100.00;93345.94;5076092;28;20086;-89
2023/01/16 22:32:17;;;;;;;2.13;0.80;;;;;;;2.76;100.00;93343.56;5050058;28;20037;-89
2023/01/16 22:34:43;;;;;;;3.13;0.87;;;;;;;2.64;100.00;93347.59;5039482;28;20384;-89
2023/01/16 22:37:09;;;;;;;3.07;0.60;;;;;;;2.58;100.00;93339.56;5034228;28;20040;-89
2023/01/16 22:39:36;;;;;;;2.23;0.60;;;;;;;2.47;100.00;93345.19;5049404;28;20029;-89
2023/01/16 22:42:01;;;;;;;2.97;0.57;;;;;;;2.43;100.00;93349.16;5030266;28;20029;-89
2023/01/16 22:47:11;;;;;;;3.10;0.87;;;;;;;2.41;100.00;93358.88;5042838;28;20033;-90
2023/01/16 22:49:38;;;;;;;6.87;1.00;;;;;;;2.39;100.00;93352.28;5029038;28;20039;-89
2023/01/16 22:52:04;;;;;;;4.03;0.67;;;;;;;2.28;100.00;93354.34;5030073;28;20255;-88
2023/01/16 22:54:29;;;;;;;3.13;0.53;;;;;;;2.37;100.00;93360.22;5052504;28;20098;-89
2023/01/16 22:56:55;;;;;;;4.77;0.80;;;;;;;2.28;100.00;93358.72;5026315;28;20033;-89
2023/01/16 22:59:21;;;;;;;2.17;0.63;;;;;;;2.26;100.00;93360.69;5053860;28;20029;-90
2023/01/16 23:01:47;;;;;;;2.00;0.70;;;;;;;2.28;100.00;93353.53;5041865;28;20075;-89
2023/01/16 23:04:31;;;;;;;5.60;2.50;;;;;;;2.21;100.00;93357.81;5034239;28;20029;-90
2023/01/16 23:06:57;;;;;;;3.57;1.07;;;;;;;2.13;100.00;93364.72;5037678;28;20033;-89
2023/01/16 23:09:37;;;;;;;2.37;1.00;;;;;;;2.13;100.00;93367.31;5036641;28;20029;-89